M I D A S
Marine Information and Data Acquisition System
Tripno 1850 of the Zeeleeuw from 2010-03-30 06:50:56 to 2010-03-30 15:46:48
Back to CruiseResearch ActivitiesStationsMapUnderway DataData graphs

EquipmentUnitsComment
TimeDGPSUTC
LatitudeDGPSDM.mWGS84
LongitudeDGPSDM.mWGS84
HeadingGyrodeg 
SOGDGPSknotsSpeed over ground
COGDGPSdegCourse over ground
DepthEcho soundermeters200 kHz
Missing or incorrect values are displayed as -999
Navigation data collected by the RV Zeeleeuw from 2010-03-30 06:47:28 to 2010-03-30 16:28:13
Time Latitude Longitude Heading SOG COG Depth
2010-03-30 06:48:33 51°13.683 2°55.889 112.4 3.9 295 -999
2010-03-30 06:49:33 51°13.695 2°55.79 88.4 4 272 -999
2010-03-30 06:50:31 51°13.693 2°55.728 53.6 0.7 7 9.9
2010-03-30 06:51:29 51°13.728 2°55.722 341.4 3.7 336 9.1
2010-03-30 06:52:29 51°13.806 2°55.654 336 6.3 335 8.3
2010-03-30 06:53:29 51°13.899 2°55.626 356.7 5.5 353 8.3
2010-03-30 06:54:29 51°13.994 2°55.578 335.7 6.8 333 8.3
2010-03-30 06:55:29 51°14.102 2°55.466 326.8 8.5 325 8.5
2010-03-30 06:56:29 51°14.228 2°55.323 325.7 9.9 324 8.3
2010-03-30 06:57:29 51°14.365 2°55.166 328.9 10.5 328 8
2010-03-30 06:58:29 51°14.515 2°55.016 331.1 10.7 326 9.2
2010-03-30 06:59:29 51°14.617 2°54.78 295 11.3 286 8
2010-03-30 07:00:29 51°14.594 2°54.463 249.4 13.1 250 8
2010-03-30 07:01:29 51°14.49 2°54.137 238.9 14.2 239 7.6
2010-03-30 07:02:29 51°14.361 2°53.822 237.9 14.3 238 5.6
2010-03-30 07:03:29 51°14.233 2°53.501 238.6 14.5 239 5.6
2010-03-30 07:04:29 51°14.105 2°53.167 240.3 14.8 241 8.3
2010-03-30 07:05:29 51°13.982 2°52.825 243.6 14.9 243 8.5
2010-03-30 07:06:29 51°13.854 2°52.483 239 15.1 239 8.6
2010-03-30 07:07:29 51°13.73 2°52.14 240.3 14.3 238 8.6
2010-03-30 07:08:29 51°13.618 2°51.844 240.8 12.2 240 9.1
2010-03-30 07:09:29 51°13.526 2°51.593 238.8 9.1 237 9.3
2010-03-30 07:10:29 51°13.458 2°51.439 225.8 4.6 231 9.4
2010-03-30 07:11:31 51°13.446 2°51.406 233.7 0.4 279 -999
2010-03-30 07:12:31 51°13.444 2°51.395 241.2 0.5 244 9.5
2010-03-30 07:13:29 51°13.44 2°51.38 243.6 0.7 247 9.5
2010-03-30 07:14:29 51°13.434 2°51.36 246.1 0.9 243 9.6
2010-03-30 07:15:29 51°13.428 2°51.336 252.3 1 243 9.5
2010-03-30 07:16:29 51°13.421 2°51.309 256.9 1.1 250 9.6
2010-03-30 07:17:29 51°13.414 2°51.28 261.1 1.2 252 9.6
2010-03-30 07:18:29 51°13.407 2°51.248 264.3 1.3 250 9.6
2010-03-30 07:19:29 51°13.4 2°51.213 265 1.4 252 9.5
2010-03-30 07:20:29 51°13.393 2°51.177 264.5 1.5 252 9.7
2010-03-30 07:21:29 51°13.385 2°51.139 261.4 1.5 251 9.7
2010-03-30 07:22:29 51°13.371 2°51.085 234.9 3.4 236 9.7
2010-03-30 07:23:29 51°13.316 2°51.036 169.6 3.9 184 9.8
2010-03-30 07:24:29 51°13.271 2°51.073 98.1 2.5 113 9.6
2010-03-30 07:25:29 51°13.296 2°51.12 36.3 3.8 29 9.5
2010-03-30 07:26:29 51°13.366 2°51.22 54.7 6.8 53 9.6
2010-03-30 07:27:29 51°13.426 2°51.387 62.2 7.5 61 9.4
2010-03-30 07:28:29 51°13.5 2°51.541 50.7 6.1 45 9.5
2010-03-30 07:29:29 51°13.555 2°51.572 6.7 2.3 338 9.6
2010-03-30 07:30:29 51°13.569 2°51.532 323.3 1.8 280 9.8
2010-03-30 07:31:29 51°13.571 2°51.483 310.1 1.9 272 9.9
2010-03-30 07:32:29 51°13.572 2°51.434 302.7 1.8 268 10
2010-03-30 07:33:29 51°13.571 2°51.385 295.4 1.8 270 9.8
2010-03-30 07:34:29 51°13.569 2°51.339 286.6 1.6 261 9.9
2010-03-30 07:35:29 51°13.563 2°51.304 283 1.2 246 9.9
2010-03-30 07:36:29 51°13.557 2°51.284 280.4 0.7 243 10
2010-03-30 07:37:29 51°13.55 2°51.266 282.4 0.8 243 10
2010-03-30 07:38:29 51°13.545 2°51.246 283.9 1 250 10
2010-03-30 07:39:29 51°13.524 2°51.18 225.4 4.1 224 10
2010-03-30 07:40:29 51°13.45 2°51.151 159 4.7 170 10
2010-03-30 07:41:29 51°13.421 2°51.236 73.4 4.5 72 9.9
2010-03-30 07:42:29 51°13.482 2°51.345 47.8 6.2 46 9.9
2010-03-30 07:43:29 51°13.503 2°51.455 90.9 2.9 104 9.9
2010-03-30 07:44:29 51°13.482 2°51.482 125.8 1.2 196 9.8
2010-03-30 07:45:29 51°13.465 2°51.464 143.8 1.3 221 9.9
2010-03-30 07:46:29 51°13.45 2°51.438 151.8 1.3 232 9.9
2010-03-30 07:47:29 51°13.438 2°51.407 156.6 1.4 240 9.9
2010-03-30 07:48:29 51°13.428 2°51.372 159.4 1.5 250 10
2010-03-30 07:49:29 51°13.421 2°51.335 165.8 1.5 256 10
2010-03-30 07:50:29 51°13.416 2°51.298 170.6 1.5 261 10.1
2010-03-30 07:51:29 51°13.413 2°51.26 178.2 1.4 263 10.1
2010-03-30 07:52:29 51°13.411 2°51.223 192.3 1.3 267 10.2
2010-03-30 07:53:29 51°13.41 2°51.191 215.3 1.1 264 10.1
2010-03-30 07:54:29 51°13.407 2°51.162 236 1.1 258 10.1
2010-03-30 07:55:29 51°13.402 2°51.134 249.2 1.1 254 10.1
2010-03-30 07:56:29 51°13.396 2°51.106 257.7 1.2 255 10.1
2010-03-30 07:57:29 51°13.391 2°51.078 263.9 1.1 258 10.2
2010-03-30 07:58:29 51°13.385 2°51.049 267.5 1.1 254 10.4
2010-03-30 07:59:29 51°13.38 2°51.021 268.7 1.1 248 10.4
2010-03-30 08:00:29 51°13.375 2°50.995 268.6 1.1 255 10.3
2010-03-30 08:01:29 51°13.37 2°50.968 268.3 1.1 252 10.5
2010-03-30 08:02:29 51°13.365 2°50.94 266.1 1.1 249 10.4
2010-03-30 08:03:29 51°13.359 2°50.913 263 1.1 251 10.5
2010-03-30 08:04:29 51°13.354 2°50.887 261.7 1 256 10.5
2010-03-30 08:05:29 51°13.35 2°50.861 261 1 252 10.6
2010-03-30 08:06:29 51°13.345 2°50.836 258.5 1 250 10.6
2010-03-30 08:07:29 51°13.326 2°50.785 220.3 3.1 225 10.5
2010-03-30 08:08:29 51°13.273 2°50.756 162 3.7 178 10.5
2010-03-30 08:09:29 51°13.235 2°50.802 88.1 2.4 96 10.4
2010-03-30 08:10:29 51°13.273 2°50.851 42.9 4.1 36 10.3
2010-03-30 08:11:29 51°13.308 2°50.924 63.2 3 60 10.4
2010-03-30 08:12:29 51°13.335 2°50.997 61.3 3.4 59 10.4
2010-03-30 08:13:29 51°13.366 2°51.075 61.1 3.5 59 10.4
2010-03-30 08:14:29 51°13.395 2°51.155 61.2 3.5 59 10.4
2010-03-30 08:15:29 51°13.426 2°51.232 60.2 3.4 58 10.4
2010-03-30 08:16:29 51°13.458 2°51.308 60.7 3.4 59 10.3
2010-03-30 08:17:29 51°13.486 2°51.387 61.1 3.4 59 10.3
2010-03-30 08:18:29 51°13.517 2°51.463 61 3.4 58 10.4
2010-03-30 08:19:29 51°13.548 2°51.54 61.4 3.4 59 10.4
2010-03-30 08:20:29 51°13.578 2°51.617 61.5 3.4 58 10.3
2010-03-30 08:21:29 51°13.608 2°51.696 60.7 3.5 57 10.3
2010-03-30 08:22:29 51°13.638 2°51.774 61.1 3.5 58 10.2
2010-03-30 08:23:29 51°13.668 2°51.854 61.5 3.6 58 10.2
2010-03-30 08:24:29 51°13.697 2°51.935 60.9 3.6 60 10.3
2010-03-30 08:25:29 51°13.727 2°52.016 61.6 3.6 60 10.2
2010-03-30 08:26:29 51°13.757 2°52.099 61.7 3.5 61 10.3
2010-03-30 08:27:29 51°13.787 2°52.182 61.7 3.6 60 10.2
2010-03-30 08:28:29 51°13.817 2°52.265 61.3 3.6 58 10.2
2010-03-30 08:29:29 51°13.847 2°52.347 61.1 3.6 59 10.2
2010-03-30 08:30:29 51°13.876 2°52.43 61.4 3.6 60 10.1
2010-03-30 08:31:29 51°13.906 2°52.512 61.3 3.6 60 10.1
2010-03-30 08:32:29 51°13.936 2°52.594 61.7 3.6 60 10.2
2010-03-30 08:33:29 51°13.967 2°52.677 61.5 3.7 61 10.2
2010-03-30 08:34:29 51°13.995 2°52.765 62.1 3.7 63 10.1
2010-03-30 08:35:29 51°14.023 2°52.852 61.1 3.7 63 10
2010-03-30 08:36:29 51°14.046 2°52.943 71.9 3.7 75 10.1
2010-03-30 08:37:29 51°14.042 2°53.04 98.8 3.8 111 9.9
2010-03-30 08:38:29 51°14.011 2°53.131 114 4 127 9.5
2010-03-30 08:39:29 51°13.954 2°53.196 145 4.4 159 9.1
2010-03-30 08:40:29 51°13.877 2°53.198 181.1 4.9 192 8.9
2010-03-30 08:41:29 51°13.803 2°53.131 219.6 5.4 226 8.8
2010-03-30 08:42:29 51°13.767 2°53.001 266.3 5.3 262 9
2010-03-30 08:43:29 51°13.77 2°52.874 291.8 4.5 279 9.2
2010-03-30 08:44:29 51°13.784 2°52.771 296.2 3.6 280 9.5
2010-03-30 08:45:29 51°13.788 2°52.689 285.8 2.9 269 9.8
2010-03-30 08:46:29 51°13.785 2°52.619 279.5 2.5 262 9.8
2010-03-30 08:47:29 51°13.78 2°52.559 276.7 2.1 263 9.9
2010-03-30 08:48:29 51°13.774 2°52.505 274.8 2.4 258 10
2010-03-30 08:49:29 51°13.734 2°52.366 235.9 8.5 234 10.1
2010-03-30 08:50:29 51°13.645 2°52.233 208.7 5.7 216 10.1
2010-03-30 08:51:29 51°13.581 2°52.17 196 3.8 210 10
2010-03-30 08:52:29 51°13.534 2°52.127 192 2.9 213 9.9
2010-03-30 08:53:29 51°13.499 2°52.086 193.6 2.4 219 9.8
2010-03-30 08:54:29 51°13.473 2°52.047 198.2 2 225 9.8
2010-03-30 08:55:29 51°13.453 2°52.007 206 1.8 236 9.8
2010-03-30 08:56:29 51°13.437 2°51.969 214.7 1.7 241 9.8
2010-03-30 08:57:29 51°13.422 2°51.927 225.9 2.7 237 9.9
2010-03-30 08:58:29 51°13.407 2°51.829 284.5 3.9 274 10
2010-03-30 08:59:29 51°13.429 2°51.714 306.9 5.3 294 10.3
2010-03-30 09:00:29 51°13.464 2°51.578 298.1 4.8 285 10.7
2010-03-30 09:01:29 51°13.465 2°51.505 268.5 1.2 257 10.8
2010-03-30 09:02:29 51°13.459 2°51.475 270 1.1 255 10.8
2010-03-30 09:03:29 51°13.455 2°51.445 277.2 1.2 258 10.9
2010-03-30 09:04:29 51°13.452 2°51.415 278.8 1.2 260 10.9
2010-03-30 09:05:29 51°13.451 2°51.384 277.3 1.2 270 10.9
2010-03-30 09:06:29 51°13.449 2°51.353 270.1 1.2 261 11
2010-03-30 09:07:29 51°13.449 2°51.321 265.3 1.2 267 11
2010-03-30 09:08:29 51°13.438 2°51.269 232.5 3.1 238 11
2010-03-30 09:09:30 51°13.383 2°51.231 164.5 3.8 175 11
2010-03-30 09:10:30 51°13.354 2°51.291 83.4 3.6 82 10.8
2010-03-30 09:11:30 51°13.419 2°51.487 59.7 10.4 58 10.6
2010-03-30 09:12:30 51°13.525 2°51.751 59 12.4 58 10.4
2010-03-30 09:13:30 51°13.636 2°52.033 59.3 12.6 58 10.3
2010-03-30 09:14:30 51°13.747 2°52.318 60.2 12.7 59 10.3
2010-03-30 09:15:30 51°13.856 2°52.607 60.2 12.7 59 10.2
2010-03-30 09:16:30 51°13.968 2°52.895 56.8 12.7 56 10.1
2010-03-30 09:17:30 51°14.099 2°53.163 49.4 12.9 46 10
2010-03-30 09:18:30 51°14.245 2°53.412 47.8 12.9 46 9.7
2010-03-30 09:19:30 51°14.394 2°53.654 44.4 12.9 42 9.8
2010-03-30 09:20:30 51°14.587 2°53.651 332.9 12.8 323 9.4
2010-03-30 09:21:30 51°14.669 2°53.331 289.3 13.8 285 8.6
2010-03-30 09:22:30 51°14.714 2°52.966 282 14.3 279 9
2010-03-30 09:23:30 51°14.758 2°52.593 283.5 14.4 281 9.4
2010-03-30 09:24:30 51°14.802 2°52.216 282.9 14.4 280 9.9
2010-03-30 09:25:30 51°14.847 2°51.843 284 14.3 281 10.2
2010-03-30 09:26:29 51°14.892 2°51.476 284 14.3 281 11.1
2010-03-30 09:27:30 51°14.94 2°51.102 284.2 14.1 282 11.7
2010-03-30 09:28:30 51°14.988 2°50.737 284.2 13.9 282 12.3
2010-03-30 09:29:30 51°15.035 2°50.374 283.9 14 281 12.7
2010-03-30 09:30:30 51°15.081 2°50.013 284.4 13.9 282 13
2010-03-30 09:31:30 51°15.127 2°49.654 284.1 13.7 282 13.1
2010-03-30 09:32:30 51°15.175 2°49.3 284.1 13.6 282 13.1
2010-03-30 09:33:30 51°15.223 2°48.949 284.4 13.5 282 13.3
2010-03-30 09:34:30 51°15.269 2°48.599 284.3 13.4 282 13.3
2010-03-30 09:35:30 51°15.32 2°48.255 289.7 13.2 287 10.9
2010-03-30 09:36:30 51°15.411 2°47.939 303.3 13.2 302 10.4
2010-03-30 09:37:30 51°15.55 2°47.664 313.8 13.4 310 12.3
2010-03-30 09:38:30 51°15.695 2°47.392 313 13.5 310 15.2
2010-03-30 09:39:30 51°15.816 2°47.096 300.4 13.3 298 17
2010-03-30 09:40:30 51°15.904 2°46.771 294.1 13.4 292 17.4
2010-03-30 09:41:30 51°15.988 2°46.445 294.6 13.2 293 15.1
2010-03-30 09:42:30 51°16.073 2°46.122 294.9 13.1 293 12.6
2010-03-30 09:43:30 51°16.156 2°45.8 295 13.1 293 11.8
2010-03-30 09:44:30 51°16.239 2°45.481 299 13 297 10.8
2010-03-30 09:45:30 51°16.336 2°45.169 300.9 13.1 296 11.5
2010-03-30 09:46:30 51°16.432 2°44.859 300.9 13 296 10.8
2010-03-30 09:47:30 51°16.526 2°44.544 300.4 13.2 296 12.7
2010-03-30 09:48:30 51°16.621 2°44.228 299.9 13.3 295 15.2
2010-03-30 09:49:30 51°16.72 2°43.914 305.7 13.1 302 15.7
2010-03-30 09:50:30 51°16.846 2°43.63 311.4 13.1 307 15.4
2010-03-30 09:51:30 51°16.975 2°43.35 311.4 13.1 307 14.6
2010-03-30 09:52:30 51°17.106 2°43.071 310.9 13 307 14.2
2010-03-30 09:53:30 51°17.238 2°42.797 310.7 12.8 308 9.1
2010-03-30 09:54:30 51°17.372 2°42.517 310.6 13.5 307 19.2
2010-03-30 09:55:30 51°17.509 2°42.229 310 13.6 307 24.6
2010-03-30 09:56:30 51°17.644 2°41.94 309.9 13.6 306 25.5
2010-03-30 09:57:30 51°17.764 2°41.638 296.6 13.5 292 25.1
2010-03-30 09:58:30 51°17.825 2°41.29 287.5 13.7 284 23.7
2010-03-30 09:59:30 51°17.881 2°40.938 288.9 13.6 284 20.9
2010-03-30 10:00:30 51°17.941 2°40.596 289.7 13.3 285 17.1
2010-03-30 10:01:30 51°18.003 2°40.259 290.3 13.2 288 20.1
2010-03-30 10:02:30 51°18.069 2°39.925 289.9 13.1 288 16.2
2010-03-30 10:03:30 51°18.126 2°39.589 280.3 13.2 276 27.7
2010-03-30 10:04:30 51°18.119 2°39.234 268 13.5 267 28.4
2010-03-30 10:05:30 51°18.103 2°38.875 268.7 13.6 266 28
2010-03-30 10:06:30 51°18.092 2°38.516 269.2 13.6 267 28.5
2010-03-30 10:07:30 51°18.083 2°38.155 269.4 13.6 269 28.2
2010-03-30 10:08:30 51°18.073 2°37.794 269.9 13.6 268 27.4
2010-03-30 10:09:30 51°18.064 2°37.433 269.8 13.7 267 25.7
2010-03-30 10:10:30 51°18.052 2°37.072 270.1 13.6 267 23.5
2010-03-30 10:11:30 51°18.04 2°36.713 270.1 13.5 266 18.6
2010-03-30 10:12:30 51°18.029 2°36.359 270.1 13.3 267 15.2
2010-03-30 10:13:30 51°18.017 2°36.013 268.9 12.9 264 14.3
2010-03-30 10:14:30 51°17.989 2°35.67 264.8 13.1 262 19.9
2010-03-30 10:15:30 51°17.961 2°35.326 264.7 13.1 263 20.8
2010-03-30 10:16:30 51°17.92 2°34.984 260.7 13.1 259 24.1
2010-03-30 10:17:30 51°17.879 2°34.644 260.9 13.2 259 26.9
2010-03-30 10:18:30 51°17.829 2°34.303 252.9 13.2 251 26.6
2010-03-30 10:19:30 51°17.741 2°33.978 245.8 13.3 245 25.4
2010-03-30 10:20:30 51°17.648 2°33.655 246.4 13.4 245 29
2010-03-30 10:21:30 51°17.557 2°33.331 246.4 13.4 246 29.9
2010-03-30 10:22:30 51°17.465 2°33.017 247.2 12.9 245 29.4
2010-03-30 10:23:30 51°17.377 2°32.71 246.9 12.7 246 29.5
2010-03-30 10:24:30 51°17.291 2°32.403 247.2 12.7 246 27.4
2010-03-30 10:25:30 51°17.204 2°32.097 246.9 12.6 245 29.5
2010-03-30 10:26:30 51°17.116 2°31.794 247.5 12.5 245 28.4
2010-03-30 10:27:30 51°17.029 2°31.491 247 12.6 246 27.9
2010-03-30 10:28:30 51°16.94 2°31.188 247.5 12.6 246 30.3
2010-03-30 10:29:30 51°16.849 2°30.884 247.5 12.7 245 30.5
2010-03-30 10:30:30 51°16.761 2°30.579 247.3 12.6 245 29.3
2010-03-30 10:31:30 51°16.673 2°30.274 247.3 12.7 245 30.6
2010-03-30 10:32:30 51°16.584 2°29.967 247.2 12.8 244 30.8
2010-03-30 10:33:30 51°16.495 2°29.66 247.4 12.8 245 30.8
2010-03-30 10:34:30 51°16.406 2°29.354 247 12.7 246 31.2
2010-03-30 10:35:30 51°16.316 2°29.049 247.3 12.6 245 31.2
2010-03-30 10:36:30 51°16.23 2°28.745 247.2 12.6 246 30.9
2010-03-30 10:37:30 51°16.146 2°28.443 246.8 12.4 247 30.7
2010-03-30 10:38:30 51°16.064 2°28.14 247.3 12.3 247 30.8
2010-03-30 10:39:30 51°15.985 2°27.845 247 11.8 247 29.9
2010-03-30 10:40:30 51°15.909 2°27.558 247.4 11.7 246 28.5
2010-03-30 10:41:30 51°15.837 2°27.271 252.9 11.6 253 25.9
2010-03-30 10:42:30 51°15.813 2°26.966 265 11.5 265 21.2
2010-03-30 10:43:30 51°15.791 2°26.665 264.8 11.2 263 16.6
2010-03-30 10:44:30 51°15.765 2°26.372 263.8 11 260 14.3
2010-03-30 10:45:30 51°15.739 2°26.081 266.3 10.9 265 14.2
2010-03-30 10:46:30 51°15.734 2°25.791 269.6 11 269 13.7
2010-03-30 10:47:30 51°15.742 2°25.517 282.8 9.2 291 16.4
2010-03-30 10:48:30 51°15.851 2°25.395 317.8 7.7 330 16.5
2010-03-30 10:49:30 51°15.972 2°25.317 339.7 8.6 356 14
2010-03-30 10:50:30 51°16.075 2°25.329 349.1 4.5 24 15.1
2010-03-30 10:51:30 51°16.1 2°25.396 26.3 2.3 90 14.3
2010-03-30 10:52:33 51°16.104 2°25.459 44.1 2.4 81 4.9
2010-03-30 10:53:31 51°16.113 2°25.523 56.3 2.8 78 15.5
2010-03-30 10:54:30 51°16.125 2°25.597 72.7 3.1 77 14.4
2010-03-30 10:55:30 51°16.134 2°25.679 91 3.1 82 13.9
2010-03-30 10:56:30 51°16.14 2°25.762 104.9 3 83 14.6
2010-03-30 10:57:30 51°16.144 2°25.845 115.6 3 86 14.5
2010-03-30 10:58:30 51°16.148 2°25.926 123.5 3.2 86 12.7
2010-03-30 10:59:30 51°16.15 2°26.012 128.3 3.7 93 13.2
2010-03-30 11:00:30 51°16.127 2°26.138 128.6 6.3 109 13.2
2010-03-30 11:01:30 51°16.101 2°26.354 96.3 10.3 93 13.3
2010-03-30 11:02:30 51°16.118 2°26.655 80.5 11.9 82 13.9
2010-03-30 11:03:30 51°16.14 2°26.97 87.6 12.1 86 16.6
2010-03-30 11:04:30 51°16.143 2°27.29 91.2 12.9 89 23
2010-03-30 11:05:30 51°16.147 2°27.654 90.4 14.3 87 27.6
2010-03-30 11:06:30 51°16.213 2°28.033 67.5 15.2 66 30.3
2010-03-30 11:07:30 51°16.322 2°28.392 64.2 15.1 64 31.6
2010-03-30 11:08:30 51°16.425 2°28.767 70.7 15.3 68 31.5
2010-03-30 11:09:30 51°16.524 2°29.145 69.8 15.7 67 32
2010-03-30 11:10:30 51°16.623 2°29.524 71 15.6 68 31.4
2010-03-30 11:11:30 51°16.715 2°29.902 71.1 15.2 69 31.6
2010-03-30 11:12:30 51°16.806 2°30.281 70.8 15.2 69 31.6
2010-03-30 11:13:30 51°16.897 2°30.657 71.1 15.3 69 31.4
2010-03-30 11:14:30 51°16.987 2°31.03 69.6 15.1 69 30.9
2010-03-30 11:15:30 51°17.078 2°31.4 68.6 15 69 29
2010-03-30 11:16:30 51°17.166 2°31.77 70.5 15 70 30.9
2010-03-30 11:17:30 51°17.254 2°32.144 70.5 15.1 70 29.4
2010-03-30 11:18:30 51°17.346 2°32.522 70.1 15.5 68 28.9
2010-03-30 11:19:30 51°17.44 2°32.896 69.5 15.4 68 30.7
2010-03-30 11:20:30 51°17.531 2°33.281 71.6 15.5 70 30.8
2010-03-30 11:21:30 51°17.622 2°33.665 69.9 15.5 70 29.1
2010-03-30 11:22:30 51°17.715 2°34.046 69.6 15.6 66 27.4
2010-03-30 11:23:30 51°17.815 2°34.43 70.3 15.7 67 27.7
2010-03-30 11:24:30 51°17.911 2°34.818 70.6 15.6 68 24.1
2010-03-30 11:25:30 51°17.954 2°35.223 94 15.4 90 27.5
2010-03-30 11:26:30 51°17.831 2°35.532 140.2 13.9 135 20
2010-03-30 11:27:30 51°17.652 2°35.754 159.8 13.5 155 14.5
2010-03-30 11:28:30 51°17.441 2°35.806 186.3 12.7 179 16.6
2010-03-30 11:29:30 51°17.23 2°35.806 182.3 12.7 177 19.8
2010-03-30 11:30:30 51°17.018 2°35.851 178.4 12.7 173 24.9
2010-03-30 11:31:30 51°16.807 2°35.896 178.6 12.7 172 29.4
2010-03-30 11:32:30 51°16.6 2°35.939 179.4 12.5 173 30.1
2010-03-30 11:33:30 51°16.394 2°35.982 179.8 12.3 173 30.6
2010-03-30 11:34:30 51°16.189 2°36.03 179.8 12.4 171 30.5
2010-03-30 11:35:30 51°15.99 2°36.078 180.6 11.9 171 30.3
2010-03-30 11:36:30 51°15.793 2°36.132 175.5 12.3 166 29.9
2010-03-30 11:37:30 51°15.597 2°36.24 168.9 12.5 159 24.4
2010-03-30 11:38:30 51°15.398 2°36.348 169.6 12.8 162 19.2
2010-03-30 11:39:30 51°15.197 2°36.458 170.2 12.9 161 18.9
2010-03-30 11:40:30 51°14.994 2°36.566 170 12.9 162 18
2010-03-30 11:41:30 51°14.79 2°36.677 170.1 13.2 160 16.5
2010-03-30 11:42:30 51°14.584 2°36.785 170.6 13.1 163 13.9
2010-03-30 11:43:30 51°14.376 2°36.894 170.7 13.1 162 14.7
2010-03-30 11:44:30 51°14.168 2°37.004 169.2 13.3 162 17.4
2010-03-30 11:45:30 51°13.959 2°37.118 170.3 13.2 162 23
2010-03-30 11:46:30 51°13.751 2°37.23 169.9 13.3 160 22.3
2010-03-30 11:47:30 51°13.545 2°37.343 170.3 12.9 161 12.2
2010-03-30 11:48:30 51°13.337 2°37.443 171.5 13 165 12.8
2010-03-30 11:49:30 51°13.128 2°37.544 169.8 12.9 164 14.4
2010-03-30 11:50:30 51°12.921 2°37.646 169.9 13.1 162 16.1
2010-03-30 11:51:30 51°12.714 2°37.744 169.6 12.9 164 16.1
2010-03-30 11:52:30 51°12.535 2°37.652 222.2 11.6 222 16
2010-03-30 11:53:29 51°12.415 2°37.418 231.2 11.8 227 15.2
2010-03-30 11:54:29 51°12.262 2°37.224 217.7 11.8 214 14.4
2010-03-30 11:55:30 51°12.095 2°37.041 217.9 12.1 215 14.1
2010-03-30 11:56:30 51°11.932 2°36.856 219.5 12 217 13.9
2010-03-30 11:57:30 51°11.769 2°36.669 219.3 12 216 13.8
2010-03-30 11:58:30 51°11.607 2°36.48 219.7 12 217 14.1
2010-03-30 11:59:30 51°11.449 2°36.29 220.2 11.9 217 13.8
2010-03-30 12:00:30 51°11.28 2°36.118 214.8 12 212 13.8
2010-03-30 12:01:30 51°11.105 2°35.962 209.5 12 206 14
2010-03-30 12:02:30 51°10.905 2°35.901 190.6 12.6 185 14.3
2010-03-30 12:03:30 51°10.699 2°35.874 189.6 12.4 184 14.3
2010-03-30 12:04:30 51°10.496 2°35.841 190.9 12.2 186 14.4
2010-03-30 12:05:30 51°10.292 2°35.82 186.6 12.2 178 14.3
2010-03-30 12:06:30 51°10.091 2°35.905 161.1 12.9 150 19.3
2010-03-30 12:07:30 51°9.929 2°36.157 138.6 13.9 128 21.6
2010-03-30 12:08:30 51°9.781 2°36.437 138.8 13.7 133 21.2
2010-03-30 12:09:30 51°9.658 2°36.673 139.2 9.8 126 20.2
2010-03-30 12:10:30 51°9.572 2°36.869 138 8.8 122 19.5
2010-03-30 12:11:30 51°9.5 2°37.058 135.2 7.6 118 19.7
2010-03-30 12:12:30 51°9.459 2°37.226 122.1 6.3 101 18.2
2010-03-30 12:13:30 51°9.476 2°37.371 70.3 5.2 67 17.5
2010-03-30 12:14:30 51°9.503 2°37.451 42 2.2 66 17.5
2010-03-30 12:15:33 51°9.511 2°37.494 36.3 1.7 70 4.7
2010-03-30 12:16:31 51°9.522 2°37.54 40.3 2 69 17.3
2010-03-30 12:17:30 51°9.537 2°37.589 46.5 2.2 63 17.4
2010-03-30 12:18:30 51°9.556 2°37.64 55.2 2.3 60 17.4
2010-03-30 12:19:30 51°9.576 2°37.695 64 2.4 60 17.4
2010-03-30 12:20:30 51°9.598 2°37.75 74.2 2.6 53 17.4
2010-03-30 12:21:30 51°9.621 2°37.812 83.3 3.6 68 17.4
2010-03-30 12:22:30 51°9.684 2°37.905 3.4 5.8 17 17.9
2010-03-30 12:23:30 51°9.744 2°37.874 274.8 2.8 297 18.6
2010-03-30 12:24:30 51°9.711 2°37.835 204.7 3.9 187 18.5
2010-03-30 12:25:30 51°9.638 2°37.803 210 5 198 17.9
2010-03-30 12:26:30 51°9.572 2°37.73 218.7 5 208 17.2
2010-03-30 12:27:30 51°9.504 2°37.657 221.5 4.9 217 16.5
2010-03-30 12:28:30 51°9.454 2°37.592 227.5 2.7 223 16.2
2010-03-30 12:29:30 51°9.444 2°37.554 248 1.1 278 16.1
2010-03-30 12:30:30 51°9.455 2°37.537 254.4 0.9 337 16.3
2010-03-30 12:31:30 51°9.471 2°37.536 255.2 1.1 9 16.5
2010-03-30 12:32:30 51°9.489 2°37.547 256.5 1.2 27 16.8
2010-03-30 12:33:30 51°9.508 2°37.564 257.3 1.3 33 17
2010-03-30 12:34:30 51°9.526 2°37.584 256.7 1.2 37 17.1
2010-03-30 12:35:30 51°9.545 2°37.6 256.2 1.2 29 17.3
2010-03-30 12:36:30 51°9.56 2°37.612 251.5 0.8 25 17.5
2010-03-30 12:37:30 51°9.57 2°37.619 248.5 0.6 23 17.7
2010-03-30 12:38:30 51°9.58 2°37.622 248.3 0.5 11 17.8
2010-03-30 12:39:30 51°9.587 2°37.623 244.5 0.4 10 17.8
2010-03-30 12:40:30 51°9.59 2°37.625 240.8 0.1 16 17.8
2010-03-30 12:41:30 51°9.593 2°37.625 240.4 -999 325 17.9
2010-03-30 12:42:30 51°9.594 2°37.624 238 0.1 344 17.9
2010-03-30 12:43:30 51°9.594 2°37.622 239.1 0.1 230 18
2010-03-30 12:44:30 51°9.593 2°37.62 236 0.2 191 17.9
2010-03-30 12:45:30 51°9.592 2°37.621 234.9 0.1 67 17.8
2010-03-30 12:46:30 51°9.59 2°37.623 231.7 0.4 201 17.7
2010-03-30 12:47:30 51°9.554 2°37.591 219.3 4 211 17.5
2010-03-30 12:48:30 51°9.519 2°37.532 239.6 2.1 241 17.3
2010-03-30 12:49:30 51°9.519 2°37.5 257.6 1.1 312 17.4
2010-03-30 12:50:30 51°9.535 2°37.487 263.7 1 346 17.8
2010-03-30 12:51:30 51°9.546 2°37.483 249.4 0.5 353 17.9
2010-03-30 12:52:29 51°9.551 2°37.48 245.5 0.3 309 17.9
2010-03-30 12:53:29 51°9.553 2°37.472 242.1 0.3 270 18.1
2010-03-30 12:54:30 51°9.555 2°37.463 242.3 0.3 296 18.1
2010-03-30 12:55:30 51°9.557 2°37.458 241.4 0.2 312 18.3
2010-03-30 12:56:29 51°9.56 2°37.454 239.1 0.1 323 18.2
2010-03-30 12:57:30 51°9.562 2°37.453 236.6 0.1 349 18.3
2010-03-30 12:58:29 51°9.563 2°37.455 234.9 0.1 107 18.2
2010-03-30 12:59:30 51°9.562 2°37.457 233.7 0.1 109 18.4
2010-03-30 13:00:30 51°9.562 2°37.459 232.4 0.1 132 18.2
2010-03-30 13:01:29 51°9.559 2°37.461 230.6 0.3 166 18.1
2010-03-30 13:02:29 51°9.554 2°37.465 227.9 0.4 157 18.1
2010-03-30 13:03:29 51°9.547 2°37.469 226.6 0.4 169 17.9
2010-03-30 13:04:29 51°9.54 2°37.471 226.1 0.6 159 17.9
2010-03-30 13:05:29 51°9.533 2°37.472 224.6 0.4 180 17.6
2010-03-30 13:06:29 51°9.53 2°37.477 225.8 0.2 95 17.6
2010-03-30 13:07:29 51°9.532 2°37.486 227.7 0.5 71 17.6
2010-03-30 13:08:28 51°9.537 2°37.496 230.2 0.6 32 17.5
2010-03-30 13:09:29 51°9.543 2°37.506 232.1 0.5 38 17.8
2010-03-30 13:10:29 51°9.548 2°37.512 232.3 0.2 41 17.6
2010-03-30 13:11:29 51°9.548 2°37.515 230.1 -999 287 17.6
2010-03-30 13:12:29 51°9.545 2°37.515 227.9 0.2 196 17.6
2010-03-30 13:13:29 51°9.541 2°37.511 228.4 0.3 188 17.6
2010-03-30 13:14:29 51°9.537 2°37.507 228 0.3 197 17.7
2010-03-30 13:15:29 51°9.532 2°37.504 226.1 0.4 198 17.4
2010-03-30 13:16:29 51°9.526 2°37.501 224.6 0.3 193 17.4
2010-03-30 13:17:29 51°9.521 2°37.499 224.9 0.3 204 17.3
2010-03-30 13:18:29 51°9.517 2°37.497 224 0.3 183 17.2
2010-03-30 13:19:29 51°9.511 2°37.496 223 0.4 190 17.1
2010-03-30 13:20:29 51°9.505 2°37.495 221.5 0.4 190 17
2010-03-30 13:21:29 51°9.497 2°37.495 218.6 0.5 187 16.8
2010-03-30 13:22:29 51°9.489 2°37.494 218.7 0.4 196 16.8
2010-03-30 13:23:29 51°9.484 2°37.496 220.7 0.3 154 16.7
2010-03-30 13:24:29 51°9.48 2°37.498 219.2 0.3 152 16.7
2010-03-30 13:25:29 51°9.475 2°37.502 218.6 0.3 151 16.5
2010-03-30 13:26:29 51°9.472 2°37.506 218.7 0.3 137 16.4
2010-03-30 13:27:29 51°9.468 2°37.51 216.7 0.3 144 16.4
2010-03-30 13:28:29 51°9.466 2°37.515 219.3 0.1 68 16.4
2010-03-30 13:29:29 51°9.468 2°37.518 222.2 0.2 51 16.2
2010-03-30 13:30:29 51°9.47 2°37.524 222.6 0.3 69 16.2
2010-03-30 13:31:29 51°9.473 2°37.529 224.4 0.3 48 16.3
2010-03-30 13:32:29 51°9.479 2°37.533 228.3 0.4 12 16.2
2010-03-30 13:33:29 51°9.484 2°37.534 229.7 0.4 3 16.4
2010-03-30 13:34:30 51°9.49 2°37.535 232.4 0.3 1 16.5
2010-03-30 13:35:30 51°9.495 2°37.535 232.5 0.3 356 16.6
2010-03-30 13:36:30 51°9.501 2°37.532 234.9 0.3 348 16.7
2010-03-30 13:37:30 51°9.507 2°37.53 236.8 0.3 337 16.7
2010-03-30 13:38:30 51°9.512 2°37.525 237.9 0.2 334 17
2010-03-30 13:39:30 51°9.518 2°37.519 238.3 0.4 326 16.9
2010-03-30 13:40:30 51°9.525 2°37.513 241.6 0.5 333 17.1
2010-03-30 13:41:30 51°9.534 2°37.508 243.5 0.6 342 17.3
2010-03-30 13:42:30 51°9.544 2°37.511 243 0.7 29 17.4
2010-03-30 13:43:30 51°9.557 2°37.519 244.7 0.8 20 17.4
2010-03-30 13:44:30 51°9.571 2°37.527 247.6 0.9 19 17.6
2010-03-30 13:45:29 51°9.587 2°37.534 249.8 1 14 17.8
2010-03-30 13:46:30 51°9.603 2°37.542 249.7 1 20 18
2010-03-30 13:47:29 51°9.618 2°37.55 248.3 1 22 18.1
2010-03-30 13:48:30 51°9.634 2°37.556 252.7 0.9 348 18.3
2010-03-30 13:49:30 51°9.661 2°37.519 295.5 3.6 324 18.6
2010-03-30 13:50:30 51°9.753 2°37.519 13.8 8.2 25 19.4
2010-03-30 13:51:30 51°9.854 2°37.752 77.7 12.6 75 19.5
2010-03-30 13:52:30 51°9.885 2°38.134 89.3 15 84 18.6
2010-03-30 13:53:30 51°9.938 2°38.526 79 15.2 76 17.5
2010-03-30 13:54:30 51°9.987 2°38.918 85.5 14.9 82 16.5
2010-03-30 13:55:29 51°10.018 2°39.297 86.5 14.6 83 15.7
2010-03-30 13:56:30 51°10.049 2°39.686 86.2 14.7 83 14.7
2010-03-30 13:57:30 51°10.069 2°40.071 93.7 14.5 91 14.1
2010-03-30 13:58:30 51°10.06 2°40.456 95.9 14.7 92 13.5
2010-03-30 13:59:30 51°10.051 2°40.847 96.4 14.7 93 12.7
2010-03-30 14:00:30 51°10.044 2°41.234 95.3 14.6 91 12
2010-03-30 14:01:30 51°10.035 2°41.617 95.5 14.3 92 11.4
2010-03-30 14:02:30 51°10.027 2°41.979 96.6 12 92 11.3
2010-03-30 14:03:30 51°10.032 2°42.258 93.8 9.8 89 11.6
2010-03-30 14:04:29 51°10.05 2°42.505 85.6 9.2 81 11.7
2010-03-30 14:05:30 51°10.068 2°42.693 82.7 5.6 73 11.8
2010-03-30 14:06:29 51°10.122 2°42.785 18 4.9 19 11.9
2010-03-30 14:07:30 51°10.187 2°42.761 304.9 3.4 318 11.8
2010-03-30 14:08:30 51°10.202 2°42.701 254.1 2.1 264 11.6
2010-03-30 14:09:30 51°10.199 2°42.669 240.1 0.6 274 11.7
2010-03-30 14:10:29 51°10.202 2°42.654 241.6 0.5 294 11.5
2010-03-30 14:11:30 51°10.206 2°42.642 243 0.7 315 11.5
2010-03-30 14:12:30 51°10.212 2°42.633 244.9 0.5 324 11.5
2010-03-30 14:13:29 51°10.22 2°42.626 246.5 0.5 332 11.5
2010-03-30 14:14:30 51°10.229 2°42.618 249.4 0.8 331 11.4
2010-03-30 14:15:29 51°10.239 2°42.609 253.2 0.9 323 11.6
2010-03-30 14:16:30 51°10.245 2°42.594 241 0.7 292 11.4
2010-03-30 14:17:29 51°10.246 2°42.578 228.5 0.5 264 11.4
2010-03-30 14:18:30 51°10.246 2°42.566 231.1 0.4 281 11.5
2010-03-30 14:19:30 51°10.249 2°42.555 235 0.5 305 11.3
2010-03-30 14:20:30 51°10.257 2°42.545 241.2 0.6 318 11.4
2010-03-30 14:21:30 51°10.264 2°42.535 240.5 0.5 321 11.4
2010-03-30 14:22:30 51°10.271 2°42.527 241.1 0.5 323 11.3
2010-03-30 14:23:30 51°10.278 2°42.519 242.1 0.5 327 11.4
2010-03-30 14:24:29 51°10.287 2°42.51 245.8 0.8 328 11.3
2010-03-30 14:25:30 51°10.294 2°42.5 244 0.6 322 11.4
2010-03-30 14:26:30 51°10.303 2°42.489 245.1 0.7 324 11.3
2010-03-30 14:27:30 51°10.311 2°42.48 245.5 0.6 327 11.4
2010-03-30 14:28:30 51°10.32 2°42.471 245.7 0.7 330 11.3
2010-03-30 14:29:30 51°10.328 2°42.465 238.8 0.5 346 11.4
2010-03-30 14:30:30 51°10.341 2°42.466 247.6 0.9 8 11.4
2010-03-30 14:31:29 51°10.357 2°42.472 258.7 1.1 15 11.4
2010-03-30 14:32:30 51°10.375 2°42.481 266.5 1.2 21 11.5
2010-03-30 14:33:29 51°10.395 2°42.492 273.4 1.3 17 11.6
2010-03-30 14:34:30 51°10.412 2°42.485 259.8 1.6 284 11.6
2010-03-30 14:35:29 51°10.388 2°42.449 196.2 2.7 187 11.4
2010-03-30 14:36:30 51°10.347 2°42.517 125.3 4.8 113 11.3
2010-03-30 14:37:30 51°10.309 2°42.653 123.8 6 115 11.1
2010-03-30 14:38:30 51°10.257 2°42.777 142.2 4.6 132 10.9
2010-03-30 14:39:30 51°10.211 2°42.834 158.4 2.9 143 11
2010-03-30 14:40:30 51°10.174 2°42.86 183.4 1.8 166 11.2
2010-03-30 14:41:30 51°10.16 2°42.86 215.3 0.1 270 11.2
2010-03-30 14:42:29 51°10.168 2°42.852 242.3 0.6 337 11.1
2010-03-30 14:43:30 51°10.18 2°42.846 248.3 0.8 344 11
2010-03-30 14:44:29 51°10.192 2°42.845 253.4 0.7 8 11.1
2010-03-30 14:45:30 51°10.206 2°42.844 255 0.9 353 11
2010-03-30 14:46:30 51°10.22 2°42.843 256.8 0.8 356 11
2010-03-30 14:47:30 51°10.236 2°42.841 262.1 1 356 10.8
2010-03-30 14:48:30 51°10.252 2°42.84 267.1 0.9 356 10.9
2010-03-30 14:49:29 51°10.267 2°42.84 267.7 1 358 10.8
2010-03-30 14:50:30 51°10.282 2°42.841 267.9 0.9 4 10.8
2010-03-30 14:51:29 51°10.297 2°42.841 264.8 1 359 10.7
2010-03-30 14:52:30 51°10.314 2°42.843 263.7 0.9 2 10.8
2010-03-30 14:53:29 51°10.329 2°42.843 263.6 0.9 3 10.7
2010-03-30 14:54:30 51°10.346 2°42.844 267.6 1 3 10.8
2010-03-30 14:55:29 51°10.361 2°42.846 269.3 0.9 4 10.7
2010-03-30 14:56:30 51°10.376 2°42.849 268.9 0.9 10 10.8
2010-03-30 14:57:30 51°10.39 2°42.852 267.6 0.9 8 10.8
2010-03-30 14:58:29 51°10.406 2°42.855 268 1 7 11
2010-03-30 14:59:30 51°10.424 2°42.858 269.4 1 9 10.8
2010-03-30 15:00:29 51°10.441 2°42.861 267.2 1 6 10.8
2010-03-30 15:01:30 51°10.458 2°42.865 264.7 1 9 10.9
2010-03-30 15:02:29 51°10.475 2°42.869 266.3 1.1 9 11
2010-03-30 15:03:30 51°10.493 2°42.872 266.9 1 11 11.1
2010-03-30 15:04:30 51°10.525 2°42.822 314 5 323 11.2
2010-03-30 15:05:30 51°10.608 2°42.86 50.3 5.1 50 11.7
2010-03-30 15:06:30 51°10.64 2°42.961 78 3.8 68 11.8
2010-03-30 15:07:29 51°10.657 2°43.044 88.5 3.6 75 11.7
2010-03-30 15:08:30 51°10.667 2°43.152 95.2 4.1 85 11.7
2010-03-30 15:09:28 51°10.67 2°43.254 100.9 3.8 91 11.5
2010-03-30 15:10:29 51°10.669 2°43.355 103.4 3.6 93 11.3
2010-03-30 15:11:29 51°10.673 2°43.451 88.2 3.8 75 11.3
2010-03-30 15:12:29 51°10.699 2°43.548 75.2 4.1 63 11.2
2010-03-30 15:13:29 51°10.731 2°43.647 72.7 4.1 61 11.3
2010-03-30 15:14:30 51°10.766 2°43.743 71.9 4.1 61 11.4
2010-03-30 15:15:28 51°10.801 2°43.831 62 4.1 53 11.4
2010-03-30 15:16:29 51°10.847 2°43.917 56.3 4.2 47 11.6
2010-03-30 15:17:30 51°10.895 2°44 54.7 4.3 47 11.9
2010-03-30 15:18:29 51°10.941 2°44.08 57.3 4.1 48 12.1
2010-03-30 15:19:30 51°10.986 2°44.16 56.2 4 47 12.3
2010-03-30 15:20:29 51°11.031 2°44.237 54.9 4 47 12.5
2010-03-30 15:21:29 51°11.074 2°44.317 60.6 4 52 12.7
2010-03-30 15:22:28 51°11.115 2°44.399 63.3 4.1 53 12.9
2010-03-30 15:23:30 51°11.153 2°44.503 73.2 4.7 66 13
2010-03-30 15:24:30 51°11.193 2°44.616 56.1 5 54 13
2010-03-30 15:25:29 51°11.242 2°44.712 49.4 4.6 49 13.3
2010-03-30 15:26:30 51°11.291 2°44.81 56 4.7 54 13.5
2010-03-30 15:27:29 51°11.325 2°44.924 79.3 4.9 73 13.6
2010-03-30 15:28:29 51°11.334 2°45.044 103.8 4.3 89 13.5
2010-03-30 15:29:29 51°11.325 2°45.144 122.4 3.5 101 13.2
2010-03-30 15:30:30 51°11.313 2°45.229 132.5 3.1 107 12.9
2010-03-30 15:31:29 51°11.296 2°45.3 139.5 2.8 113 12.6
2010-03-30 15:32:29 51°11.275 2°45.37 143.1 2.9 120 12.1
2010-03-30 15:33:29 51°11.26 2°45.429 153.7 2.1 108 11.7
2010-03-30 15:34:30 51°11.254 2°45.476 160.5 1.5 99 11.7
2010-03-30 15:35:30 51°11.255 2°45.515 163.8 1.5 81 11.6
2010-03-30 15:36:29 51°11.26 2°45.554 165.3 1.6 76 11.4
2010-03-30 15:37:29 51°11.27 2°45.597 154.2 1.7 67 11.4
2010-03-30 15:38:29 51°11.282 2°45.639 148 1.7 62 11.5
2010-03-30 15:39:29 51°11.297 2°45.677 143.6 1.6 57 11.4
2010-03-30 15:40:28 51°11.296 2°45.751 103.9 5.1 92 11.1
2010-03-30 15:41:29 51°11.335 2°45.871 40.5 4.5 42 11.2
2010-03-30 15:42:30 51°11.379 2°45.931 22.7 2.2 46 11.6
2010-03-30 15:43:29 51°11.403 2°45.966 357.1 1.9 39 11.7
2010-03-30 15:44:30 51°11.424 2°45.993 340.9 1.5 40 11.7
2010-03-30 15:45:30 51°11.44 2°46.023 333.5 1.7 52 12
2010-03-30 15:46:30 51°11.455 2°46.059 335.1 1.5 58 12
2010-03-30 15:47:28 51°11.49 2°46.087 2.7 4.5 18 12.4
2010-03-30 15:48:29 51°11.593 2°46.252 64.6 12.2 67 12.8
2010-03-30 15:49:28 51°11.664 2°46.595 74.8 14.4 72 12.4
2010-03-30 15:50:29 51°11.758 2°46.952 66.1 14.5 64 12.1
2010-03-30 15:51:29 51°11.86 2°47.298 67.2 14.5 64 12.1
2010-03-30 15:52:29 51°11.963 2°47.642 65.8 14.2 66 12
2010-03-30 15:53:29 51°12.063 2°47.988 67 14.3 65 11.9
2010-03-30 15:54:29 51°12.16 2°48.331 67.7 14.2 66 11.8
2010-03-30 15:55:29 51°12.272 2°48.659 59.9 14 58 11.7
2010-03-30 15:56:29 51°12.395 2°48.975 58.5 14 57 11.8
2010-03-30 15:57:29 51°12.521 2°49.292 58.9 14.2 58 11.6
2010-03-30 15:58:30 51°12.649 2°49.618 59.9 14.3 58 11.8
2010-03-30 15:59:30 51°12.78 2°49.934 56.4 14.3 54 11.8
2010-03-30 16:00:29 51°12.907 2°50.247 59.9 14.3 58 11.8
2010-03-30 16:01:29 51°13.031 2°50.569 60.3 14.4 58 11.8
2010-03-30 16:02:30 51°13.159 2°50.9 60.3 14.4 58 11.8
2010-03-30 16:03:30 51°13.281 2°51.225 61.2 14.3 60 11.7
2010-03-30 16:04:29 51°13.404 2°51.545 58.7 14.5 56 11.5
2010-03-30 16:05:30 51°13.544 2°51.867 57.3 14.4 55 11.3
2010-03-30 16:06:30 51°13.678 2°52.182 57.5 14.4 59 11.3
2010-03-30 16:07:29 51°13.801 2°52.465 56.1 12.3 54 11.5
2010-03-30 16:08:29 51°13.924 2°52.743 56.7 12.8 57 11.4
2010-03-30 16:09:29 51°14.041 2°53.019 58.2 12.4 54 11.1
2010-03-30 16:10:29 51°14.151 2°53.276 58 11.3 55 11
2010-03-30 16:11:29 51°14.25 2°53.504 57.1 9.5 54 10.6
2010-03-30 16:12:29 51°14.331 2°53.705 59.9 8.8 59 10.5
2010-03-30 16:13:29 51°14.402 2°53.884 60.1 7.4 57 10.5
2010-03-30 16:14:29 51°14.458 2°54.051 68.5 7.4 66 10.5
2010-03-30 16:15:29 51°14.523 2°54.277 69.6 11.1 65 10.7
2010-03-30 16:16:29 51°14.585 2°54.579 76.6 12.9 73 10.6
2010-03-30 16:17:29 51°14.589 2°54.903 109.2 12.1 112 12.5
2010-03-30 16:18:29 51°14.442 2°55.108 147.3 11.8 146 11.4
2010-03-30 16:19:29 51°14.28 2°55.28 147.4 11 146 11
2010-03-30 16:20:29 51°14.148 2°55.395 154 8 152 10.7
2010-03-30 16:21:29 51°14.043 2°55.478 155.6 6 155 10.5
2010-03-30 16:22:29 51°13.958 2°55.542 156.6 5.9 156 10.6
2010-03-30 16:23:28 51°13.865 2°55.608 157.3 6 157 10.6
2010-03-30 16:24:30 51°13.787 2°55.677 147.4 4.9 146 10.5
2010-03-30 16:25:30 51°13.733 2°55.766 132.2 4.6 129 11.3
2010-03-30 16:26:29 51°13.691 2°55.855 128.4 4 125 8.6
2010-03-30 16:27:28 51°13.666 2°55.941 110.2 2.4 106 7.4